Time;durP1;ratioP1;P1;durP2;ratioP2;P2;SDS_P1;SDS_P2;PMS_P1;PMS_P2;Temp;Humidity;BMP_temperature;BMP_pressure;BME280_temperature;BME280_humidity;BME280_pressure;Samples;Min_cycle;Max_cycle;Signal;HPM_P1;HPM_P2
2023/09/14 00:02:20;;;;;;;6.67;5.73;;;;;;;;;;5052966;28;20895;-75
2023/09/14 00:04:49;;;;;;;6.00;4.43;;;;;;;;;;5052784;28;20506;-75
2023/09/14 00:07:16;;;;;;;6.07;5.47;;;;;;;;;;5053373;28;20515;-75
2023/09/14 00:09:44;;;;;;;7.50;4.90;;;;;;;;;;5053214;28;20437;-75
2023/09/14 00:12:11;;;;;;;5.73;4.50;;;;;;;;;;5053087;28;20442;-75
2023/09/14 00:14:38;;;;;;;5.83;4.90;;;;;;;;;;5053061;28;20465;-75
2023/09/14 00:17:06;;;;;;;6.60;4.70;;;;;;;;;;5052988;28;20927;-75
2023/09/14 00:19:33;;;;;;;9.03;5.33;;;;;;;;;;5053322;28;20480;-76
2023/09/14 00:22:02;;;;;;;6.20;4.47;;;;;;;;;;5053592;28;20441;-75
2023/09/14 00:24:29;;;;;;;6.10;5.17;;;;;;;;;;5052884;28;20495;-75
2023/09/14 00:26:56;;;;;;;6.83;4.90;;;;;;;;;;5052808;28;20531;-75
2023/09/14 00:29:24;;;;;;;8.63;5.77;;;;;;;;;;5052876;28;20469;-75
2023/09/14 00:31:51;;;;;;;5.90;4.80;;;;;;;;;;5052845;28;20432;-75
2023/09/14 00:34:18;;;;;;;7.90;5.20;;;;;;;;;;5052735;28;20434;-75
2023/09/14 00:36:45;;;;;;;6.50;5.70;;;;;;;;;;5053028;28;20437;-75
2023/09/14 00:39:14;;;;;;;6.90;5.63;;;;;;;;;;5053033;28;20498;-75
2023/09/14 00:41:42;;;;;;;7.63;5.20;;;;;;;;;;5053161;28;20834;-75
2023/09/14 00:44:09;;;;;;;7.83;6.80;;;;;;;;;;5053008;28;20511;-75
2023/09/14 00:46:36;;;;;;;7.53;5.73;;;;;;;;;;5052627;28;20437;-75
2023/09/14 00:49:04;;;;;;;9.53;5.47;;;;;;;;;;5052643;28;20920;-75
2023/09/14 00:51:31;;;;;;;8.40;5.43;;;;;;;;;;5053114;28;20437;-75
2023/09/14 00:53:59;;;;;;;8.17;5.87;;;;;;;;;;5052605;28;20490;-75
2023/09/14 00:56:28;;;;;;;6.30;4.80;;;;;;;;;;5053029;28;20834;-75
2023/09/14 00:58:56;;;;;;;6.60;5.67;;;;;;;;;;5052485;28;20531;-75
2023/09/14 01:01:23;;;;;;;7.67;5.13;;;;;;;;;;5052901;28;20484;-75
2023/09/14 01:03:51;;;;;;;6.40;5.03;;;;;;;;;;5052881;28;20469;-76
2023/09/14 01:06:18;;;;;;;6.73;5.23;;;;;;;;;;5052837;28;20439;-76
2023/09/14 01:08:45;;;;;;;7.83;5.80;;;;;;;;;;5052210;28;20538;-75
2023/09/14 01:11:13;;;;;;;7.93;5.50;;;;;;;;;;5052832;28;20437;-75
2023/09/14 01:13:45;;;;;;;7.20;5.50;;;;;;;;;;5052622;28;20847;-75
2023/09/14 01:16:16;;;;;;;6.67;4.60;;;;;;;;;;5056687;28;20460;-75
2023/09/14 01:18:44;;;;;;;6.93;5.10;;;;;;;;;;5056604;28;20897;-75
2023/09/14 01:21:26;;;;;;;6.33;5.00;;;;;;;;;;5056478;28;20429;-75
2023/09/14 01:23:57;;;;;;;7.97;5.63;;;;;;;;;;5056162;28;20456;-75
2023/09/14 01:26:27;;;;;;;6.53;5.67;;;;;;;;;;5056020;28;20417;-75
2023/09/14 01:28:54;;;;;;;9.07;6.00;;;;;;;;;;5055882;28;20457;-75
2023/09/14 01:31:22;;;;;;;6.53;5.20;;;;;;;;;;5056001;28;20475;-75
2023/09/14 01:33:50;;;;;;;6.63;4.73;;;;;;;;;;5055917;28;20429;-76
2023/09/14 01:36:19;;;;;;;6.70;5.10;;;;;;;;;;5055929;28;20498;-75
2023/09/14 01:38:47;;;;;;;5.80;4.83;;;;;;;;;;5056119;28;20950;-75
2023/09/14 01:41:14;;;;;;;6.23;5.63;;;;;;;;;;5055861;28;20499;-75
2023/09/14 01:43:45;;;;;;;6.90;5.60;;;;;;;;;;5056240;28;20878;-75
2023/09/14 01:46:13;;;;;;;7.83;5.57;;;;;;;;;;5056134;28;20457;-75
2023/09/14 01:48:40;;;;;;;5.73;4.57;;;;;;;;;;5055834;28;20523;-75
2023/09/14 01:51:08;;;;;;;7.83;5.73;;;;;;;;;;5055887;28;20429;-75
2023/09/14 01:53:35;;;;;;;5.67;4.67;;;;;;;;;;5055818;28;20469;-75
2023/09/14 01:56:02;;;;;;;11.33;5.37;;;;;;;;;;5055906;28;20842;-75
2023/09/14 01:58:30;;;;;;;7.53;5.87;;;;;;;;;;5055528;28;20445;-75
2023/09/14 02:00:58;;;;;;;5.07;4.30;;;;;;;;;;5055469;28;20453;-75
2023/09/14 02:03:26;;;;;;;6.30;4.87;;;;;;;;;;5055471;28;20472;-75
2023/09/14 02:05:58;;;;;;;6.20;4.67;;;;;;;;;;5055974;28;20469;-75
2023/09/14 02:08:26;;;;;;;9.30;4.23;;;;;;;;;;5055244;28;20473;-76
2023/09/14 02:10:53;;;;;;;7.53;5.70;;;;;;;;;;5055682;28;20469;-75
2023/09/14 02:13:21;;;;;;;6.80;5.20;;;;;;;;;;5055140;28;20977;-75
2023/09/14 02:15:48;;;;;;;6.00;4.87;;;;;;;;;;5055585;28;20434;-75
2023/09/14 02:18:17;;;;;;;5.97;5.20;;;;;;;;;;5055090;28;20449;-75
2023/09/14 02:20:45;;;;;;;5.13;4.53;;;;;;;;;;5055078;28;20469;-75
2023/09/14 02:23:12;;;;;;;6.93;5.40;;;;;;;;;;5055017;28;20418;-75
2023/09/14 02:25:39;;;;;;;6.63;5.00;;;;;;;;;;5054405;28;20923;-75
2023/09/14 02:28:07;;;;;;;7.00;4.77;;;;;;;;;;5054639;28;20507;-75
2023/09/14 02:30:34;;;;;;;6.70;5.43;;;;;;;;;;5054904;28;20441;-75
2023/09/14 02:33:01;;;;;;;11.00;5.50;;;;;;;;;;5055116;28;20469;-75
2023/09/14 02:35:30;;;;;;;7.80;5.70;;;;;;;;;;5054801;28;20938;-75
2023/09/14 02:37:57;;;;;;;6.23;5.30;;;;;;;;;;5055085;28;20469;-75
2023/09/14 02:40:25;;;;;;;6.77;5.87;;;;;;;;;;5055068;28;20433;-75
2023/09/14 02:42:52;;;;;;;11.00;5.83;;;;;;;;;;5054879;28;20864;-75
2023/09/14 02:45:19;;;;;;;7.20;6.07;;;;;;;;;;5054891;28;20856;-75
2023/09/14 02:47:47;;;;;;;8.47;6.07;;;;;;;;;;5054720;28;20577;-75
2023/09/14 02:50:14;;;;;;;15.30;5.70;;;;;;;;;;5054826;28;20441;-75
2023/09/14 02:52:42;;;;;;;7.33;5.33;;;;;;;;;;5054477;28;20483;-75
2023/09/14 02:55:10;;;;;;;8.00;5.03;;;;;;;;;;5054475;28;20433;-75
2023/09/14 02:57:37;;;;;;;7.10;5.37;;;;;;;;;;5054631;28;20449;-75
2023/09/14 03:00:06;;;;;;;6.77;5.13;;;;;;;;;;5054074;28;20515;-75
2023/09/14 03:02:33;;;;;;;7.20;5.10;;;;;;;;;;5054122;28;20520;-75
2023/09/14 03:05:02;;;;;;;6.53;4.17;;;;;;;;;;5054179;28;20491;-75
2023/09/14 03:07:30;;;;;;;6.70;4.63;;;;;;;;;;5054397;28;20538;-75
2023/09/14 03:09:58;;;;;;;5.40;4.60;;;;;;;;;;5054353;28;20495;-75
2023/09/14 03:12:26;;;;;;;6.30;4.50;;;;;;;;;;5054258;28;20834;-75
2023/09/14 03:14:53;;;;;;;5.90;4.57;;;;;;;;;;5054356;28;20947;-75
2023/09/14 03:17:20;;;;;;;6.70;5.37;;;;;;;;;;5054535;28;20493;-75
2023/09/14 03:19:48;;;;;;;6.80;4.57;;;;;;;;;;5053954;28;20473;-75
2023/09/14 03:22:16;;;;;;;6.50;5.50;;;;;;;;;;5053860;28;20433;-75
2023/09/14 03:24:43;;;;;;;6.10;5.50;;;;;;;;;;5054165;28;20442;-75
2023/09/14 03:27:12;;;;;;;6.17;5.17;;;;;;;;;;5053955;28;20445;-76
2023/09/14 03:29:39;;;;;;;6.90;5.00;;;;;;;;;;5054042;28;20500;-75
2023/09/14 03:32:07;;;;;;;6.87;5.57;;;;;;;;;;5053675;28;20936;-75
2023/09/14 03:34:34;;;;;;;6.03;4.50;;;;;;;;;;5053613;28;20444;-75
2023/09/14 03:37:01;;;;;;;6.27;5.53;;;;;;;;;;5053678;28;20496;-75
2023/09/14 03:39:28;;;;;;;10.70;5.20;;;;;;;;;;5052788;28;20495;-75
2023/09/14 03:41:56;;;;;;;6.10;5.47;;;;;;;;;;5053768;28;20491;-76
2023/09/14 03:44:24;;;;;;;7.73;5.80;;;;;;;;;;5053884;28;20453;-75
2023/09/14 03:46:52;;;;;;;6.27;4.47;;;;;;;;;;5053809;28;20434;-75
2023/09/14 03:49:19;;;;;;;5.83;5.00;;;;;;;;;;5053756;28;20526;-75
2023/09/14 03:51:46;;;;;;;9.20;5.13;;;;;;;;;;5053698;28;20563;-75
2023/09/14 03:54:14;;;;;;;7.20;5.03;;;;;;;;;;5053648;28;20511;-75
2023/09/14 03:56:41;;;;;;;6.20;4.83;;;;;;;;;;5053816;28;20516;-75
2023/09/14 03:59:08;;;;;;;6.87;5.93;;;;;;;;;;5053077;28;20511;-75
2023/09/14 04:01:37;;;;;;;6.03;5.43;;;;;;;;;;5053271;28;20860;-75
2023/09/14 04:04:05;;;;;;;5.67;4.87;;;;;;;;;;5053709;28;20503;-75
2023/09/14 04:06:32;;;;;;;8.47;4.80;;;;;;;;;;5053490;28;20539;-75
2023/09/14 04:08:59;;;;;;;8.80;5.00;;;;;;;;;;5053363;28;20511;-76
2023/09/14 04:11:26;;;;;;;4.73;4.13;;;;;;;;;;5053444;28;20434;-75
2023/09/14 04:13:54;;;;;;;7.10;4.37;;;;;;;;;;5053290;28;20625;-75
2023/09/14 04:16:21;;;;;;;5.40;3.83;;;;;;;;;;5053429;28;20461;-76
2023/09/14 04:18:50;;;;;;;7.17;5.20;;;;;;;;;;5053007;28;20868;-75
2023/09/14 04:21:17;;;;;;;6.37;4.40;;;;;;;;;;5053043;28;20440;-76
2023/09/14 04:23:45;;;;;;;9.10;4.60;;;;;;;;;;5052998;28;20931;-75
2023/09/14 04:26:12;;;;;;;4.70;4.17;;;;;;;;;;5053188;28;20441;-75
2023/09/14 04:28:39;;;;;;;6.17;4.63;;;;;;;;;;5053130;28;20535;-75
2023/09/14 04:31:09;;;;;;;6.70;4.47;;;;;;;;;;5053243;28;20429;-75
2023/09/14 04:33:36;;;;;;;11.70;5.40;;;;;;;;;;5053259;28;20429;-75
2023/09/14 04:36:06;;;;;;;5.43;4.73;;;;;;;;;;5052848;28;20483;-74
2023/09/14 04:38:33;;;;;;;6.20;5.40;;;;;;;;;;5052873;28;20438;-74
2023/09/14 04:41:04;;;;;;;6.10;4.80;;;;;;;;;;5052786;28;20437;-74
2023/09/14 04:43:32;;;;;;;6.93;4.40;;;;;;;;;;5052727;28;20467;-75
2023/09/14 04:46:03;;;;;;;6.77;5.00;;;;;;;;;;5053129;28;20467;-76
2023/09/14 04:48:30;;;;;;;7.33;4.80;;;;;;;;;;5053021;28;20461;-74
2023/09/14 04:50:58;;;;;;;5.50;4.80;;;;;;;;;;5056391;28;20930;-74
2023/09/14 04:53:27;;;;;;;8.40;4.80;;;;;;;;;;5057075;28;20437;-74
2023/09/14 04:55:54;;;;;;;6.47;5.30;;;;;;;;;;5056896;28;20473;-74
2023/09/14 04:58:21;;;;;;;5.63;4.67;;;;;;;;;;5056939;28;20483;-74
2023/09/14 05:00:49;;;;;;;7.20;5.60;;;;;;;;;;5056589;28;20903;-74
2023/09/14 05:03:16;;;;;;;10.03;5.77;;;;;;;;;;5056531;28;20465;-74
2023/09/14 05:05:44;;;;;;;6.60;4.53;;;;;;;;;;5056540;28;20440;-74
2023/09/14 05:08:11;;;;;;;8.33;4.60;;;;;;;;;;5056658;28;20442;-74
2023/09/14 05:10:40;;;;;;;7.20;5.07;;;;;;;;;;5056671;28;20530;-74
2023/09/14 05:13:07;;;;;;;6.50;4.70;;;;;;;;;;5056517;28;20465;-74
2023/09/14 05:15:34;;;;;;;6.00;5.40;;;;;;;;;;5056282;28;20491;-74
2023/09/14 05:18:02;;;;;;;6.90;6.20;;;;;;;;;;5056563;28;20483;-76
2023/09/14 05:20:29;;;;;;;7.47;5.00;;;;;;;;;;5056541;28;20439;-74
2023/09/14 05:22:56;;;;;;;6.23;5.57;;;;;;;;;;5056466;28;20437;-74
2023/09/14 05:25:25;;;;;;;8.60;6.30;;;;;;;;;;5056553;28;20437;-74
2023/09/14 05:27:54;;;;;;;7.67;5.70;;;;;;;;;;5056110;28;20444;-74
2023/09/14 05:30:23;;;;;;;8.53;5.70;;;;;;;;;;5056105;28;20508;-76
2023/09/14 05:32:51;;;;;;;7.17;5.80;;;;;;;;;;5056225;28;20437;-74
2023/09/14 05:35:18;;;;;;;7.87;6.10;;;;;;;;;;5055759;28;20464;-74
2023/09/14 05:37:46;;;;;;;7.20;6.00;;;;;;;;;;5056097;28;20799;-74
2023/09/14 05:40:13;;;;;;;9.17;6.87;;;;;;;;;;5056226;28;20437;-74
2023/09/14 05:42:41;;;;;;;8.33;5.50;;;;;;;;;;5056032;28;20472;-74
2023/09/14 05:45:11;;;;;;;8.37;6.10;;;;;;;;;;5055935;28;20834;-74
2023/09/14 05:47:38;;;;;;;9.27;6.30;;;;;;;;;;5056021;28;20421;-74
2023/09/14 05:50:08;;;;;;;7.43;5.90;;;;;;;;;;5055419;28;20546;-74
2023/09/14 05:52:35;;;;;;;8.70;6.30;;;;;;;;;;5055669;28;20447;-74
2023/09/14 05:55:03;;;;;;;9.97;7.97;;;19.70;99.90;;;;;;5055704;28;20433;-74
2023/09/14 05:57:30;;;;;;;9.53;6.93;;;18.80;99.90;;;;;;5055652;28;20525;-74
2023/09/14 05:59:58;;;;;;;8.90;6.80;;;18.70;99.90;;;;;;5055152;28;20465;-74
2023/09/14 06:02:26;;;;;;;10.70;8.70;;;18.70;99.90;;;;;;5054305;28;20473;-74
2023/09/14 06:04:53;;;;;;;8.90;6.80;;;18.80;99.90;;;;;;5055739;28;20445;-74
2023/09/14 06:07:25;;;;;;;8.17;6.10;;;18.90;99.90;;;;;;5055382;28;20473;-74
2023/09/14 06:09:52;;;;;;;9.70;7.83;;;18.90;99.90;;;;;;5055331;28;20501;-74
2023/09/14 06:12:20;;;;;;;11.10;7.30;;;19.00;99.90;;;;;;5055188;28;20464;-74
2023/09/14 06:14:47;;;;;;;10.83;7.87;;;19.00;99.90;;;;;;5054894;28;20524;-74
2023/09/14 06:17:14;;;;;;;10.53;8.27;;;19.00;99.90;;;;;;5055437;28;20502;-74
2023/09/14 06:19:42;;;;;;;11.30;9.83;;;19.10;99.90;;;;;;5055123;28;20446;-74
2023/09/14 06:22:10;;;;;;;11.27;9.87;;;19.10;99.90;;;;;;5054852;28;20487;-74
2023/09/14 06:24:37;;;;;;;14.73;11.50;;;19.20;99.90;;;;;;5055116;28;20441;-74
2023/09/14 06:27:04;;;;;;;15.20;11.07;;;19.20;99.90;;;;;;5055032;28;20758;-74
2023/09/14 06:29:31;;;;;;;16.50;12.07;;;19.20;99.90;;;;;;5054839;28;20501;-74
2023/09/14 06:31:59;;;;;;;13.40;11.10;;;;;;;;;;5054665;28;20986;-74
2023/09/14 06:34:26;;;;;;;13.10;10.83;;;;;;;;;;5054855;28;20502;-74
2023/09/14 06:36:55;;;;;;;13.43;10.50;;;;;;;;;;5054442;28;20437;-74
2023/09/14 06:39:22;;;;;;;18.33;13.53;;;;;;;;;;5054606;28;20438;-74
2023/09/14 06:41:49;;;;;;;14.10;11.10;;;;;;;;;;5054643;28;20429;-74
2023/09/14 06:44:18;;;;;;;13.20;11.63;;;;;;;;;;5054291;28;20437;-74
2023/09/14 06:46:46;;;;;;;15.57;13.00;;;;;;;;;;5054614;28;20441;-74
2023/09/14 06:49:13;;;;;;;15.33;12.33;;;;;;;;;;5054483;28;20496;-74
2023/09/14 06:51:41;;;;;;;15.17;12.83;;;;;;;;;;5054337;28;20426;-74
2023/09/14 06:54:10;;;;;;;16.00;13.73;;;;;;;;;;5054160;28;20524;-74
2023/09/14 06:56:37;;;;;;;15.53;13.90;;;;;;;;;;5054459;28;20473;-74
2023/09/14 06:59:05;;;;;;;19.33;13.93;;;;;;;;;;5053976;28;20892;-74
2023/09/14 07:01:33;;;;;;;15.33;13.70;;;;;;;;;;5054000;28;20452;-74
2023/09/14 07:04:01;;;;;;;16.83;14.20;;;;;;;;;;5054281;28;20483;-74
2023/09/14 07:06:28;;;;;;;16.30;14.40;;;;;;;;;;5054289;28;20461;-74
2023/09/14 07:08:56;;;;;;;16.00;13.73;;;;;;;;;;5053808;28;20967;-74
2023/09/14 07:11:25;;;;;;;17.07;13.53;;;;;;;;;;5054161;28;20790;-74
2023/09/14 07:13:52;;;;;;;18.20;16.10;;;;;;;;;;5053498;28;20511;-74
2023/09/14 07:16:19;;;;;;;16.10;13.60;;;;;;;;;;5053768;28;20437;-74
2023/09/14 07:18:47;;;;;;;17.60;14.20;;;;;;;;;;5053620;28;20924;-74
2023/09/14 07:21:14;;;;;;;18.43;14.23;;;;;;;;;;5053903;28;20487;-74
2023/09/14 07:23:42;;;;;;;16.53;13.80;;;;;;;;;;5053902;28;20437;-75
2023/09/14 07:26:09;;;;;;;19.23;15.47;;;;;;;;;;5053614;28;20816;-74
2023/09/14 07:28:38;;;;;;;16.60;14.30;;;;;;;;;;5053768;28;20441;-74
2023/09/14 07:31:07;;;;;;;17.30;14.90;;;;;;;;;;5053868;28;20441;-74
2023/09/14 07:33:34;;;;;;;18.67;14.60;;;;;;;;;;5053501;28;20437;-74
2023/09/14 07:36:01;;;;;;;17.97;12.83;;;;;;;;;;5053438;28;20437;-74
2023/09/14 07:38:29;;;;;;;19.10;13.60;;;;;;;;;;5053765;28;20837;-74
2023/09/14 07:40:56;;;;;;;17.83;13.90;;;;;;;;;;5053685;28;20780;-74
2023/09/14 07:43:23;;;;;;;16.13;13.60;;;;;;;;;;5053493;28;20528;-74
2023/09/14 07:45:52;;;;;;;16.63;13.63;;;;;;;;;;5053240;28;20430;-74
2023/09/14 07:48:19;;;;;;;18.10;14.13;;;;;;;;;;5053206;28;20469;-74
2023/09/14 07:50:47;;;;;;;21.53;13.20;;;;;;;;;;5053121;28;20477;-76
2023/09/14 07:53:14;;;;;;;18.10;13.77;;;;;;;;;;5053167;28;20450;-76
2023/09/14 07:55:43;;;;;;;16.50;13.90;;;;;;;;;;5053046;28;20965;-76
2023/09/14 07:58:10;;;;;;;18.00;13.70;;;;;;;;;;5053151;28;20503;-75
2023/09/14 08:00:38;;;;;;;17.80;14.20;;;;;;;;;;5053099;28;20507;-76
2023/09/14 08:03:09;;;;;;;16.67;13.40;;;;;;;;;;5053341;28;20441;-74
2023/09/14 08:05:36;;;;;;;15.43;13.60;;;;;;;;;;5053541;28;20425;-74
2023/09/14 08:08:04;;;;;;;17.17;14.37;;;;;;;;;;5052966;28;20434;-74
2023/09/14 08:10:31;;;;;;;15.70;13.13;;;;;;;;;;5053069;28;20473;-77
2023/09/14 08:13:00;;;;;;;16.10;12.40;;;;;;;;;;5053092;28;20429;-76
2023/09/14 08:15:27;;;;;;;18.40;13.97;;;;;;;;;;5053101;28;20518;-74
2023/09/14 08:17:55;;;;;;;15.47;12.27;;;;;;;;;;5052745;28;20499;-74
2023/09/14 08:20:23;;;;;;;14.67;13.07;;;;;;;;;;5053098;28;20834;-74
2023/09/14 08:22:51;;;;;;;16.10;13.73;;;;;;;;;;5053060;28;20826;-76
2023/09/14 08:25:18;;;;;;;23.60;14.13;;;;;;;;;;5052389;28;20827;-74
2023/09/14 08:27:46;;;;;;;17.10;12.77;;;;;;;;;;5052870;28;20511;-76
2023/09/14 08:30:15;;;;;;;16.00;13.17;;;;;;;;;;5052482;28;20469;-76
2023/09/14 08:32:42;;;;;;;16.50;14.13;;;;;;;;;;5052921;28;20516;-76
2023/09/14 08:35:22;;;;;;;15.93;13.70;;;;;;;;;;5052507;28;20448;-76
2023/09/14 08:37:52;;;;;;;15.67;13.23;;;;;;;;;;5052540;28;20512;-76
2023/09/14 08:40:19;;;;;;;17.57;14.83;;;;;;;;;;5052937;28;20441;-75
2023/09/14 08:42:48;;;;;;;16.17;14.20;;;;;;;;;;5052423;28;20473;-76
2023/09/14 08:45:17;;;;;;;14.80;13.13;;;;;;;;;;5052448;28;20908;-76
2023/09/14 08:47:45;;;;;;;18.70;15.00;;;;;;;;;;5052456;28;20980;-76
2023/09/14 08:50:17;;;;;;;15.70;14.00;;;;;;;;;;5052747;28;20472;-76
2023/09/14 08:52:45;;;;;;;15.93;14.20;;;;;;;;;;5052802;28;20502;-76
2023/09/14 08:55:19;;;;;;;22.23;16.13;;;;;;;;;;5052788;28;20433;-76
2023/09/14 08:57:47;;;;;;;20.97;15.63;;;;;;;;;;5052309;28;20460;-76
2023/09/14 09:00:15;;;;;;;16.13;13.70;;;;;;;;;;5052177;28;20921;-76
2023/09/14 09:02:46;;;;;;;18.90;15.40;;;;;;;;;;5052356;28;20491;-76
2023/09/14 09:05:14;;;;;;;19.60;15.93;;;;;;;;;;5052329;28;20469;-76
2023/09/14 09:07:42;;;;;;;16.90;15.10;;;;;;;;;;5052349;28;20476;-76
2023/09/14 09:10:12;;;;;;;16.37;13.83;;;;;;;;;;5052205;28;20531;-76
2023/09/14 09:12:41;;;;;;;18.00;14.43;;;;;;;;;;5052604;28;20468;-76
2023/09/14 09:15:10;;;;;;;20.57;14.40;;;;;;;;;;5052224;28;20864;-76
2023/09/14 09:17:39;;;;;;;17.70;13.57;;;;;;;;;;5052483;28;20433;-76
2023/09/14 09:20:14;;;;;;;17.70;14.60;;;;;;;;;;5052167;28;20445;-76
2023/09/14 09:22:42;;;;;;;16.43;14.60;;;;;;;;;;5052447;28;20472;-76
2023/09/14 09:25:10;;;;;;;17.00;13.53;;;;;;;;;;5052555;28;20488;-76
2023/09/14 09:27:38;;;;;;;17.97;14.67;;;;;;;;;;5052422;28;20812;-76
2023/09/14 09:30:08;;;;;;;18.30;13.47;;;;;;;;;;5052149;28;20978;-75
2023/09/14 09:32:37;;;;;;;15.70;12.93;;;;;;;;;;5052698;28;20433;-76
2023/09/14 09:35:17;;;;;;;15.10;13.53;;;;;;;;;;5053006;28;20503;-76
2023/09/14 09:37:44;;;;;;;15.70;14.10;;;;;;;;;;5056255;28;20453;-76
2023/09/14 09:40:17;;;;;;;15.53;12.80;;;;;;;;;;5056058;28;20445;-76
2023/09/14 09:42:46;;;;;;;16.20;13.10;;;;;;;;;;5055573;28;20896;-76
2023/09/14 09:45:16;;;;;;;16.80;14.00;;;;;;;;;;5055682;28;20973;-75
2023/09/14 09:47:43;;;;;;;16.90;13.87;;;;;;;;;;5055450;28;20433;-76
2023/09/14 09:50:11;;;;;;;15.63;12.50;;;;;;;;;;5055357;28;20481;-76
2023/09/14 09:52:40;;;;;;;16.40;13.70;;;;;;;;;;5055510;28;20543;-76
2023/09/14 09:55:07;;;;;;;15.70;12.47;;;;;;;;;;5055745;28;20441;-76
2023/09/14 09:57:37;;;;;;;16.00;14.00;;;;;;;;;;5055278;28;20487;-75
2023/09/14 10:00:12;;;;;;;16.77;12.00;;;;;;;;;;5055144;28;20552;-73
2023/09/14 10:02:41;;;;;;;14.40;11.50;;;;;;;;;;5055395;28;20417;-74
2023/09/14 10:05:09;;;;;;;14.67;10.00;;;;;;;;;;5055515;28;20433;-74
2023/09/14 10:07:39;;;;;;;10.27;9.27;;;;;;;;;;5055443;28;20438;-75
2023/09/14 10:10:07;;;;;;;9.73;8.73;;;;;;;;;;5055192;28;20483;-74
2023/09/14 10:12:40;;;;;;;11.43;10.23;;;;;;;;;;5055300;28;20456;-75
2023/09/14 10:15:07;;;;;;;11.30;10.10;;;;;;;;;;5055080;28;20906;-75
2023/09/14 10:17:35;;;;;;;8.57;7.67;;;;;;;;;;5055340;28;20486;-74
2023/09/14 10:20:05;;;;;;;8.07;7.23;;;;;;;;;;5054879;28;20438;-74
2023/09/14 10:22:33;;;;;;;8.83;8.03;;;;;;;;;;5055095;28;20503;-74
2023/09/14 10:25:00;;;;;;;10.90;9.90;;;;;;;;;;5055148;28;20457;-74
2023/09/14 10:27:29;;;;;;;9.50;8.67;;;;;;;;;;5054745;28;20433;-74
2023/09/14 10:29:57;;;;;;;9.03;8.33;;;;;;;;;;5054493;28;20473;-74
2023/09/14 10:32:26;;;;;;;8.23;7.53;;;;;;;;;;5054682;28;21014;-74
2023/09/14 10:34:54;;;;;;;6.93;6.33;;;;;;;;;;5054660;28;20439;-75
2023/09/14 10:37:23;;;;;;;7.13;6.53;;;;;;;;;;5054980;28;20476;-74
2023/09/14 10:39:51;;;;;;;6.17;5.57;;;;;;;;;;5054694;28;20433;-74
2023/09/14 10:42:20;;;;;;;6.37;5.77;;;;;;;;;;5054730;28;20516;-74
2023/09/14 10:44:48;;;;;;;6.90;5.60;;;;;;;;;;5054675;28;20479;-74
2023/09/14 10:47:16;;;;;;;7.10;6.50;;;;;;;;;;5053848;28;20688;-75
2023/09/14 10:49:45;;;;;;;8.97;8.13;;;;;;;;;;5054345;28;20436;-74
2023/09/14 10:52:13;;;;;;;7.60;6.90;;;;;;;;;;5054562;28;20468;-75
2023/09/14 10:54:42;;;;;;;6.87;6.27;;;;;;;;;;5054274;28;20433;-74
2023/09/14 10:57:14;;;;;;;7.57;6.20;;;;;;;;;;5054491;28;20466;-74
2023/09/14 10:59:51;;;;;;;7.67;6.97;;;;;;;;;;5054065;28;20560;-75
2023/09/14 11:02:37;;;;;;;12.17;10.87;;;;;;;;;;5054543;28;20511;-74
2023/09/14 11:05:13;;;;;;;9.13;8.30;;;;;;;;;;5054335;28;20777;-73
2023/09/14 11:07:44;;;;;;;8.90;7.73;;;;;;;;;;5054408;28;20465;-74
2023/09/14 11:10:19;;;;;;;8.67;7.67;;;;;;;;;;5053967;28;20809;-74
2023/09/14 11:12:47;;;;;;;11.47;10.30;;;;;;;;;;5053882;28;20485;-74
2023/09/14 11:15:17;;;;;;;13.83;12.60;;;;;;;;;;5054331;28;20438;-74
2023/09/14 11:17:44;;;;;;;12.50;11.30;;;;;;;;;;5053901;28;20443;-74
2023/09/14 11:20:26;;;;;;;14.47;13.07;;;;;;;;;;5054120;28;20436;-74
2023/09/14 11:22:54;;;;;;;11.73;10.63;;;;;;;;;;5053220;28;20444;-74
2023/09/14 11:25:27;;;;;;;14.30;10.13;;;;;;;;;;5054056;28;20487;-74
2023/09/14 11:27:55;;;;;;;10.50;9.30;;;;;;;;;;5053897;28;20429;-74
2023/09/14 11:30:24;;;;;;;12.47;11.37;;;;;;;;;;5053426;28;20519;-74
2023/09/14 11:32:52;;;;;;;12.77;11.47;;;;;;;;;;5053867;28;20494;-74
2023/09/14 11:35:19;;;;;;;12.00;10.80;;;;;;;;;;5053487;28;20490;-74
2023/09/14 11:37:47;;;;;;;12.93;11.73;;;;;;;;;;5053488;28;20914;-73
2023/09/14 11:40:16;;;;;;;12.20;10.20;;;;;;;;;;5053391;28;20496;-74
2023/09/14 11:43:20;;;;;;;11.53;10.33;;;19.30;99.90;;;;;;5053742;28;20861;-74
2023/09/14 11:45:49;;;;;;;11.33;10.10;;;34.60;30.90;;;;;;5053700;28;20428;-74
2023/09/14 11:48:22;;;;;;;9.37;8.37;;;34.10;31.90;;;;;;5053551;28;20478;-74
2023/09/14 11:50:50;;;;;;;9.43;8.43;;;34.30;33.60;;;;;;5053094;28;20471;-75
2023/09/14 11:53:18;;;;;;;11.13;8.87;;;36.60;31.40;;;;;;5053741;28;20439;-74
2023/09/14 11:55:49;;;;;;;9.67;8.77;;;39.50;28.60;;;;;;5053471;28;20433;-74
2023/09/14 11:58:18;;;;;;;11.77;8.63;;;39.10;27.20;;;;;;5052505;28;20917;-74
2023/09/14 12:00:47;;;;;;;8.57;7.77;;;38.00;28.70;;;;;;5052703;28;20427;-74
2023/09/14 12:03:15;;;;;;;14.17;9.00;;;38.40;28.30;;;;;;5053036;28;20490;-74
2023/09/14 12:05:42;;;;;;;10.30;9.20;;;37.90;27.80;;;;;;5053014;28;20430;-74
2023/09/14 12:08:11;;;;;;;10.53;9.43;;;37.70;28.10;;;;;;5052926;28;20427;-74
2023/09/14 12:10:38;;;;;;;10.13;9.13;;;37.60;27.70;;;;;;5053147;28;20479;-74
2023/09/14 12:13:13;;;;;;;10.73;9.73;;;36.30;28.60;;;;;;5052839;28;20529;-74
2023/09/14 12:15:42;;;;;;;13.57;10.30;;;34.80;30.10;;;;;;5053017;28;20433;-73
2023/09/14 12:18:10;;;;;;;11.07;9.40;;;33.40;32.70;;;;;;5052850;28;20986;-73
2023/09/14 12:20:40;;;;;;;13.70;9.40;;;32.30;34.00;;;;;;5053006;28;20477;-73
2023/09/14 12:23:09;;;;;;;11.40;8.83;;;;;;;;;;5053100;28;20445;-73
2023/09/14 12:25:37;;;;;;;10.37;8.73;;;;;;;;;;5052904;28;20442;-73
2023/09/14 12:28:05;;;;;;;10.27;9.03;;;;;;;;;;5052900;28;20536;-73
2023/09/14 12:30:33;;;;;;;9.50;8.60;;;;;;;;;;5052518;28;20443;-73
2023/09/14 12:33:03;;;;;;;10.33;9.10;;;;;;;;;;5052678;28;20880;-73
2023/09/14 12:35:30;;;;;;;13.60;10.10;;;;;;;;;;5052678;28;20894;-73
2023/09/14 12:38:02;;;;;;;10.40;9.17;;;;;;;;;;5052536;28;20895;-73
2023/09/14 12:40:33;;;;;;;10.33;9.23;;;;;;;;;;5052540;28;20908;-73
2023/09/14 12:43:03;;;;;;;12.27;10.60;;;;;;;;;;5052469;28;20434;-73
2023/09/14 12:45:31;;;;;;;11.30;10.00;;;;;;;;;;5052900;28;20456;-73
2023/09/14 12:47:58;;;;;;;11.37;9.97;;;;;;;;;;5052542;28;20438;-73
2023/09/14 12:50:33;;;;;;;14.17;10.50;;;;;;;;;;5052828;28;20499;-73
2023/09/14 12:53:07;;;;;;;12.27;9.70;;;;;;;;;;5053068;28;20483;-73
2023/09/14 12:55:39;;;;;;;10.83;9.73;;;;;;;;;;5052852;28;20509;-73
2023/09/14 12:58:06;;;;;;;11.90;9.10;;;;;;;;;;5052842;28;20529;-73
2023/09/14 13:00:34;;;;;;;10.67;9.53;;;;;;;;;;5052193;28;20536;-73
2023/09/14 13:03:01;;;;;;;10.20;9.20;;;;;;;;;;5052717;28;20480;-73
2023/09/14 13:05:29;;;;;;;11.10;9.70;;;;;;;;;;5052354;28;20883;-73
2023/09/14 13:08:00;;;;;;;14.37;11.03;;;;;;;;;;5052688;28;20429;-75
2023/09/14 13:10:32;;;;;;;14.00;11.13;;;;;;;;;;5053659;28;20544;-75
2023/09/14 13:13:00;;;;;;;15.90;10.70;;;;;;;;;;5056218;28;20908;-75
2023/09/14 13:15:28;;;;;;;12.90;10.20;;;;;;;;;;5056489;28;20472;-73
2023/09/14 13:17:56;;;;;;;12.00;10.17;;;;;;;;;;5056139;28;20942;-73
2023/09/14 13:20:24;;;;;;;12.03;10.70;;;;;;;;;;5056403;28;20469;-73
2023/09/14 13:22:51;;;;;;;12.70;11.47;;;;;;;;;;5056367;28;20857;-73
2023/09/14 13:25:20;;;;;;;11.90;10.70;;;;;;;;;;5055963;28;20437;-73
2023/09/14 13:27:47;;;;;;;12.73;10.30;;;;;;;;;;5055864;28;20432;-73
2023/09/14 13:30:14;;;;;;;12.90;9.80;;;;;;;;;;5056185;28;20836;-73
2023/09/14 13:32:42;;;;;;;12.87;10.97;;;;;;;;;;5056223;28;20618;-73
2023/09/14 13:35:10;;;;;;;11.90;10.60;;;;;;;;;;5056141;28;20437;-75
2023/09/14 13:37:39;;;;;;;9.97;8.97;;;;;;;;;;5056013;28;20443;-75
2023/09/14 13:40:14;;;;;;;11.17;9.90;;;;;;;;;;5056040;28;20433;-75
2023/09/14 13:42:43;;;;;;;11.63;10.17;;;;;;;;;;5055816;28;20441;-73
2023/09/14 13:45:10;;;;;;;14.50;10.27;;;;;;;;;;5055654;28;20951;-73
2023/09/14 13:47:38;;;;;;;12.40;11.10;;;;;;;;;;5055910;28;20556;-73
2023/09/14 13:50:05;;;;;;;12.00;10.80;;;;;;;;;;5055896;28;20853;-73
2023/09/14 13:52:34;;;;;;;12.10;10.40;;;;;;;;;;5055750;28;20559;-73
2023/09/14 13:55:01;;;;;;;15.77;11.10;;;;;;;;;;5055730;28;20500;-73
2023/09/14 13:57:30;;;;;;;12.27;11.07;;;;;;;;;;5055668;28;20495;-73
2023/09/14 13:59:59;;;;;;;14.90;11.30;;;;;;;;;;5055177;28;20461;-73
2023/09/14 14:02:26;;;;;;;11.73;10.53;;;;;;;;;;5055652;28;20465;-74
2023/09/14 14:04:53;;;;;;;10.43;8.93;;;;;;;;;;5055278;28;20448;-73
2023/09/14 14:07:21;;;;;;;10.53;9.43;;;;;;;;;;5055519;28;20438;-73
2023/09/14 14:09:48;;;;;;;11.10;9.13;;;;;;;;;;5055187;28;20915;-73
2023/09/14 14:12:15;;;;;;;13.80;9.90;;;;;;;;;;5055391;28;20886;-73
2023/09/14 14:14:43;;;;;;;12.80;9.73;;;;;;;;;;5055275;28;20528;-73
2023/09/14 14:17:11;;;;;;;12.33;10.87;;;;;;;;;;5054908;28;20911;-73
2023/09/14 14:19:39;;;;;;;10.70;9.60;;;;;;;;;;5055340;28;20803;-75
2023/09/14 14:22:06;;;;;;;11.00;9.90;;;;;;;;;;5053988;28;20442;-75
2023/09/14 14:24:35;;;;;;;11.53;8.27;;;;;;;;;;5055191;28;20447;-75
2023/09/14 14:27:07;;;;;;;10.20;7.83;;;;;;;;;;5055083;28;20437;-73
2023/09/14 14:29:34;;;;;;;11.03;9.27;;;;;;;;;;5055122;28;20491;-73